CET,Max TemperatureF,Mean TemperatureF,Min TemperatureF,Max Dew PointF,MeanDew PointF,Min DewpointF,Max Humidity, Mean Humidity, Min Humidity, Max Sea Level PressureIn, Mean Sea Level PressureIn, Min Sea Level PressureIn, Max VisibilityMiles, Mean VisibilityMiles, Min VisibilityMiles, Max Wind SpeedMPH, Mean Wind SpeedMPH, Max Gust SpeedMPH,PrecipitationIn, CloudCover, Events, WindDirDegrees
2012-11-1,47,42,38,45,39,30,100,83,56,29.73,29.46,29.36,16,4,1,22,11,30,0.24,8,Rain,151
2012-11-2,47,43,39,43,41,36,100,92,82,29.83,29.68,29.47,11,3,0,9,4,,0.01,6,Fog-Rain,190
2012-11-3,48,42,37,43,39,34,93,87,76,29.87,29.80,29.74,12,6,5,13,5,,0.00,4,Rain,138
2012-11-4,51,46,42,48,45,41,94,88,77,29.81,29.71,29.50,11,6,5,10,5,,0.00,6,,65
2012-11-5,47,42,37,50,42,36,94,86,76,29.71,29.57,29.42,19,7,3,20,8,,0.04,5,Rain,248
2012-11-6,48,41,33,37,32,27,93,77,39,30.09,29.92,29.74,19,7,6,17,6,,0.00,3,Rain,242
2012-11-7,47,40,32,39,35,28,93,78,60,30.26,30.14,30.06,19,7,6,17,8,,0.00,6,,227
2012-11-8,51,45,39,41,39,37,93,79,60,30.28,30.14,30.04,6,6,6,13,8,,0.00,7,,215
2012-11-9,52,44,35,41,38,34,93,82,48,30.14,30.08,30.04,19,6,4,14,5,,0.00,4,Fog-Rain,18
2012-11-10,50,42,34,39,36,33,93,80,59,30.11,29.96,29.86,9,6,4,22,11,,0.00,2,,115
2012-11-11,53,48,42,41,39,37,87,72,51,30.04,29.91,29.86,16,6,5,20,12,,0.00,2,Rain,131
2012-11-12,50,47,44,46,43,39,93,86,76,30.36,30.21,30.04,16,4,2,8,3,,0.04,5,Rain,302
2012-11-13,50,44,39,43,40,34,93,81,67,30.56,30.46,30.33,10,5,3,13,6,,0.00,5,,35
2012-11-14,44,38,32,36,31,28,93,78,54,30.57,30.47,30.39,8,4,3,13,7,,0.00,1,,52
2012-11-15,45,38,30,37,34,28,93,84,66,30.45,30.30,30.24,6,4,3,13,6,,0.00,6,,93
2012-11-16,45,40,36,39,37,36,93,81,66,30.28,30.21,30.15,12,6,3,14,8,,0.00,8,,121
2012-11-17,44,43,42,41,39,37,87,82,74,30.17,30.05,29.98,7,5,3,10,9,,0.00,8,,123
2012-11-18,43,42,41,41,39,37,93,88,76,30.07,30.01,29.95,4,3,2,9,5,,0.00,8,,200
2012-11-19,49,45,41,43,40,37,87,81,66,30.17,30.11,30.06,6,5,3,10,5,,0.00,6,,61
2012-11-20,51,43,35,43,40,32,93,86,66,30.23,30.18,30.15,6,3,0,9,6,,0.00,3,Fog,78
2012-11-21,47,40,32,43,38,31,100,90,75,30.26,30.16,30.12,6,2,0,14,6,,0.00,7,Fog,82
2012-11-22,47,44,41,44,41,37,93,87,71,30.31,30.24,30.15,6,4,1,7,4,,0.00,6,Rain,177
2012-11-23,44,42,40,43,42,39,100,94,85,30.28,30.21,30.18,3,2,1,7,5,,0.03,8,Rain,126
2012-11-24,44,42,41,41,40,39,100,88,78,30.25,30.20,30.15,6,4,2,7,4,,0.00,8,,190
2012-11-25,47,45,43,43,42,41,93,87,79,30.17,30.09,30.06,5,3,2,13,7,,0.00,8,,149
2012-11-26,46,44,42,45,42,41,100,90,81,30.12,29.97,29.80,4,2,1,10,6,,0.00,8,,143
2012-11-27,48,46,44,45,43,42,93,87,76,29.81,29.73,29.68,9,5,2,9,6,,0.00,8,,124
2012-11-28,55,46,37,47,42,37,100,83,62,29.68,29.54,29.39,6,4,0,16,6,,0.00,3,Fog-Rain,90
2012-11-29,51,44,37,46,39,29,87,76,55,29.44,29.29,29.21,16,6,5,23,12,36,0.00,5,Rain,182
2012-11-30,39,36,32,30,28,27,81,69,51,29.83,29.65,29.44,19,7,6,18,11,,0.00,5,Rain,290